sensor_id;sensor_type;location;lat;lon;timestamp;temperature;humidity
61912;DHT22;49973;52.084;5.412;2023-07-31T00:00:09;15.70;99.90
61912;DHT22;49973;52.084;5.412;2023-07-31T00:02:38;15.70;99.90
61912;DHT22;49973;52.084;5.412;2023-07-31T00:05:08;15.80;99.90
61912;DHT22;49973;52.084;5.412;2023-07-31T00:07:37;15.80;99.90
61912;DHT22;49973;52.084;5.412;2023-07-31T00:10:07;15.80;99.90
61912;DHT22;49973;52.084;5.412;2023-07-31T00:12:35;15.80;99.90
61912;DHT22;49973;52.084;5.412;2023-07-31T00:15:07;15.80;99.90
61912;DHT22;49973;52.084;5.412;2023-07-31T00:17:36;15.80;99.90
61912;DHT22;49973;52.084;5.412;2023-07-31T00:20:05;15.90;99.90
61912;DHT22;49973;52.084;5.412;2023-07-31T00:22:35;15.90;99.90
61912;DHT22;49973;52.084;5.412;2023-07-31T00:25:05;15.90;99.90
61912;DHT22;49973;52.084;5.412;2023-07-31T00:27:33;15.90;99.90
61912;DHT22;49973;52.084;5.412;2023-07-31T00:30:03;16.00;99.90
61912;DHT22;49973;52.084;5.412;2023-07-31T00:32:34;16.00;99.90
61912;DHT22;49973;52.084;5.412;2023-07-31T00:35:04;16.10;99.90
61912;DHT22;49973;52.084;5.412;2023-07-31T00:37:32;16.00;99.90
61912;DHT22;49973;52.084;5.412;2023-07-31T00:40:02;16.10;99.90
61912;DHT22;49973;52.084;5.412;2023-07-31T00:42:31;16.10;99.90
61912;DHT22;49973;52.084;5.412;2023-07-31T00:45:00;16.20;99.90
61912;DHT22;49973;52.084;5.412;2023-07-31T00:47:30;16.20;99.90
61912;DHT22;49973;52.084;5.412;2023-07-31T00:50:00;16.30;99.90
61912;DHT22;49973;52.084;5.412;2023-07-31T00:52:29;16.30;99.90
61912;DHT22;49973;52.084;5.412;2023-07-31T00:54:58;16.40;99.90
61912;DHT22;49973;52.084;5.412;2023-07-31T00:57:32;16.50;99.90
61912;DHT22;49973;52.084;5.412;2023-07-31T01:00:02;16.50;99.90
61912;DHT22;49973;52.084;5.412;2023-07-31T01:02:31;16.60;99.90
61912;DHT22;49973;52.084;5.412;2023-07-31T01:05:02;16.60;99.90
61912;DHT22;49973;52.084;5.412;2023-07-31T01:07:38;16.70;99.90
61912;DHT22;49973;52.084;5.412;2023-07-31T01:10:16;16.70;99.90
61912;DHT22;49973;52.084;5.412;2023-07-31T01:12:48;16.70;99.90
61912;DHT22;49973;52.084;5.412;2023-07-31T01:15:18;16.80;99.90
61912;DHT22;49973;52.084;5.412;2023-07-31T01:17:46;16.80;99.90
61912;DHT22;49973;52.084;5.412;2023-07-31T01:20:18;16.80;99.90
61912;DHT22;49973;52.084;5.412;2023-07-31T01:23:18;16.80;99.90
61912;DHT22;49973;52.084;5.412;2023-07-31T01:26:00;16.90;99.90
61912;DHT22;49973;52.084;5.412;2023-07-31T01:28:36;16.90;99.90
61912;DHT22;49973;52.084;5.412;2023-07-31T01:31:07;16.80;99.90
61912;DHT22;49973;52.084;5.412;2023-07-31T01:33:39;16.90;99.90
61912;DHT22;49973;52.084;5.412;2023-07-31T01:36:08;16.90;99.90
61912;DHT22;49973;52.084;5.412;2023-07-31T01:38:37;16.90;99.90
61912;DHT22;49973;52.084;5.412;2023-07-31T01:41:07;16.90;99.90
61912;DHT22;49973;52.084;5.412;2023-07-31T01:43:37;16.90;99.90
61912;DHT22;49973;52.084;5.412;2023-07-31T01:46:06;16.90;99.90
61912;DHT22;49973;52.084;5.412;2023-07-31T01:48:35;16.90;99.90
61912;DHT22;49973;52.084;5.412;2023-07-31T01:51:04;16.90;99.90
61912;DHT22;49973;52.084;5.412;2023-07-31T01:53:32;16.90;99.90
61912;DHT22;49973;52.084;5.412;2023-07-31T01:56:01;16.90;99.90
61912;DHT22;49973;52.084;5.412;2023-07-31T01:58:32;16.90;99.90
61912;DHT22;49973;52.084;5.412;2023-07-31T02:01:00;16.90;99.90
61912;DHT22;49973;52.084;5.412;2023-07-31T02:03:29;16.90;99.90
61912;DHT22;49973;52.084;5.412;2023-07-31T02:05:58;16.90;99.90
61912;DHT22;49973;52.084;5.412;2023-07-31T02:08:27;16.90;99.90
61912;DHT22;49973;52.084;5.412;2023-07-31T02:10:56;16.90;99.90
61912;DHT22;49973;52.084;5.412;2023-07-31T02:13:24;16.80;99.90
61912;DHT22;49973;52.084;5.412;2023-07-31T02:15:54;16.90;99.90
61912;DHT22;49973;52.084;5.412;2023-07-31T02:18:23;16.80;99.90
61912;DHT22;49973;52.084;5.412;2023-07-31T02:20:52;16.80;99.90
61912;DHT22;49973;52.084;5.412;2023-07-31T02:23:21;16.80;99.90
61912;DHT22;49973;52.084;5.412;2023-07-31T02:25:50;16.80;99.90
61912;DHT22;49973;52.084;5.412;2023-07-31T02:28:19;16.80;99.90
61912;DHT22;49973;52.084;5.412;2023-07-31T02:30:47;16.80;99.90
61912;DHT22;49973;52.084;5.412;2023-07-31T02:33:18;17.00;99.90
61912;DHT22;49973;52.084;5.412;2023-07-31T02:35:47;16.80;99.90
61912;DHT22;49973;52.084;5.412;2023-07-31T02:38:16;16.80;99.90
61912;DHT22;49973;52.084;5.412;2023-07-31T02:40:44;16.80;99.90
61912;DHT22;49973;52.084;5.412;2023-07-31T02:43:14;16.70;99.90
61912;DHT22;49973;52.084;5.412;2023-07-31T02:45:42;16.80;99.90
61912;DHT22;49973;52.084;5.412;2023-07-31T02:48:11;16.80;99.90
61912;DHT22;49973;52.084;5.412;2023-07-31T02:50:42;16.80;99.90
61912;DHT22;49973;52.084;5.412;2023-07-31T02:53:11;16.80;99.90
61912;DHT22;49973;52.084;5.412;2023-07-31T02:55:40;16.80;99.90
61912;DHT22;49973;52.084;5.412;2023-07-31T02:58:09;16.80;99.90
61912;DHT22;49973;52.084;5.412;2023-07-31T03:00:42;16.80;99.90
61912;DHT22;49973;52.084;5.412;2023-07-31T03:03:11;16.80;99.90
61912;DHT22;49973;52.084;5.412;2023-07-31T03:05:39;16.80;99.90
61912;DHT22;49973;52.084;5.412;2023-07-31T03:08:09;16.70;99.90
61912;DHT22;49973;52.084;5.412;2023-07-31T03:10:38;16.80;99.90
61912;DHT22;49973;52.084;5.412;2023-07-31T03:13:07;16.80;99.90
61912;DHT22;49973;52.084;5.412;2023-07-31T03:15:36;16.80;99.90
61912;DHT22;49973;52.084;5.412;2023-07-31T03:18:04;16.70;99.90
61912;DHT22;49973;52.084;5.412;2023-07-31T03:20:33;16.70;99.90
61912;DHT22;49973;52.084;5.412;2023-07-31T03:23:02;16.70;99.90
61912;DHT22;49973;52.084;5.412;2023-07-31T03:25:32;16.70;99.90
61912;DHT22;49973;52.084;5.412;2023-07-31T03:28:01;16.70;99.90
61912;DHT22;49973;52.084;5.412;2023-07-31T03:30:30;16.70;99.90
61912;DHT22;49973;52.084;5.412;2023-07-31T03:32:59;16.70;99.90
61912;DHT22;49973;52.084;5.412;2023-07-31T03:35:27;16.70;99.90
61912;DHT22;49973;52.084;5.412;2023-07-31T03:37:56;16.60;99.90
61912;DHT22;49973;52.084;5.412;2023-07-31T03:40:25;16.60;99.90
61912;DHT22;49973;52.084;5.412;2023-07-31T03:42:55;16.60;99.90
61912;DHT22;49973;52.084;5.412;2023-07-31T03:45:24;16.60;99.90
61912;DHT22;49973;52.084;5.412;2023-07-31T03:47:53;16.60;99.90
61912;DHT22;49973;52.084;5.412;2023-07-31T03:50:24;16.60;99.90
61912;DHT22;49973;52.084;5.412;2023-07-31T03:52:53;16.60;99.90
61912;DHT22;49973;52.084;5.412;2023-07-31T03:55:22;16.60;99.90
61912;DHT22;49973;52.084;5.412;2023-07-31T03:57:50;16.60;99.90
61912;DHT22;49973;52.084;5.412;2023-07-31T04:00:23;16.60;99.90
61912;DHT22;49973;52.084;5.412;2023-07-31T04:02:52;16.60;99.90
61912;DHT22;49973;52.084;5.412;2023-07-31T04:05:21;16.60;99.90
61912;DHT22;49973;52.084;5.412;2023-07-31T04:07:49;16.50;99.90
61912;DHT22;49973;52.084;5.412;2023-07-31T04:10:18;16.50;99.90
61912;DHT22;49973;52.084;5.412;2023-07-31T04:12:47;16.50;99.90
61912;DHT22;49973;52.084;5.412;2023-07-31T04:15:16;16.60;99.90
61912;DHT22;49973;52.084;5.412;2023-07-31T04:17:46;16.50;99.90
61912;DHT22;49973;52.084;5.412;2023-07-31T04:20:14;16.50;99.90
61912;DHT22;49973;52.084;5.412;2023-07-31T04:22:43;16.50;99.90
61912;DHT22;49973;52.084;5.412;2023-07-31T04:25:12;16.50;99.90
61912;DHT22;49973;52.084;5.412;2023-07-31T04:27:41;16.50;99.90
61912;DHT22;49973;52.084;5.412;2023-07-31T04:30:09;16.50;99.90
61912;DHT22;49973;52.084;5.412;2023-07-31T04:32:38;16.50;99.90
61912;DHT22;49973;52.084;5.412;2023-07-31T04:35:08;16.50;99.90
61912;DHT22;49973;52.084;5.412;2023-07-31T04:37:37;16.40;99.90
61912;DHT22;49973;52.084;5.412;2023-07-31T04:40:07;16.40;99.90
61912;DHT22;49973;52.084;5.412;2023-07-31T04:42:36;16.50;99.90
61912;DHT22;49973;52.084;5.412;2023-07-31T04:45:05;16.50;99.90
61912;DHT22;49973;52.084;5.412;2023-07-31T04:47:34;16.50;99.90
61912;DHT22;49973;52.084;5.412;2023-07-31T04:50:03;16.50;99.90
61912;DHT22;49973;52.084;5.412;2023-07-31T04:52:33;16.50;99.90
61912;DHT22;49973;52.084;5.412;2023-07-31T04:55:02;16.50;99.90
61912;DHT22;49973;52.084;5.412;2023-07-31T04:57:31;16.50;99.90
61912;DHT22;49973;52.084;5.412;2023-07-31T04:59:59;16.50;99.90
61912;DHT22;49973;52.084;5.412;2023-07-31T05:02:28;16.50;99.90
61912;DHT22;49973;52.084;5.412;2023-07-31T05:04:57;16.60;99.90
61912;DHT22;49973;52.084;5.412;2023-07-31T05:07:26;16.50;99.90
61912;DHT22;49973;52.084;5.412;2023-07-31T05:09:56;16.50;99.90
61912;DHT22;49973;52.084;5.412;2023-07-31T05:12:25;16.50;99.90
61912;DHT22;49973;52.084;5.412;2023-07-31T05:14:54;16.50;99.90
61912;DHT22;49973;52.084;5.412;2023-07-31T05:17:22;16.50;99.90
61912;DHT22;49973;52.084;5.412;2023-07-31T05:19:51;16.50;99.90
61912;DHT22;49973;52.084;5.412;2023-07-31T05:22:20;16.50;99.90
61912;DHT22;49973;52.084;5.412;2023-07-31T05:24:48;16.50;99.90
61912;DHT22;49973;52.084;5.412;2023-07-31T05:27:18;16.40;99.90
61912;DHT22;49973;52.084;5.412;2023-07-31T05:29:47;16.40;99.90
61912;DHT22;49973;52.084;5.412;2023-07-31T05:32:16;16.40;99.90
61912;DHT22;49973;52.084;5.412;2023-07-31T05:34:44;16.40;99.90
61912;DHT22;49973;52.084;5.412;2023-07-31T05:37:14;16.40;99.90
61912;DHT22;49973;52.084;5.412;2023-07-31T05:39:42;16.40;99.90
61912;DHT22;49973;52.084;5.412;2023-07-31T05:42:11;16.30;99.90
61912;DHT22;49973;52.084;5.412;2023-07-31T05:44:41;16.30;99.90
61912;DHT22;49973;52.084;5.412;2023-07-31T05:47:10;16.30;99.90
61912;DHT22;49973;52.084;5.412;2023-07-31T05:49:39;16.30;99.90
61912;DHT22;49973;52.084;5.412;2023-07-31T05:52:08;16.30;99.90
61912;DHT22;49973;52.084;5.412;2023-07-31T05:54:36;16.30;99.90
61912;DHT22;49973;52.084;5.412;2023-07-31T05:57:06;16.20;99.90
61912;DHT22;49973;52.084;5.412;2023-07-31T05:59:34;16.30;99.90
61912;DHT22;49973;52.084;5.412;2023-07-31T06:02:05;16.30;99.90
61912;DHT22;49973;52.084;5.412;2023-07-31T06:04:34;16.30;99.90
61912;DHT22;49973;52.084;5.412;2023-07-31T06:07:03;16.30;99.90
61912;DHT22;49973;52.084;5.412;2023-07-31T06:09:32;16.30;99.90
61912;DHT22;49973;52.084;5.412;2023-07-31T06:12:01;16.40;99.90
61912;DHT22;49973;52.084;5.412;2023-07-31T06:14:30;16.40;99.90
61912;DHT22;49973;52.084;5.412;2023-07-31T06:16:58;16.40;99.90
61912;DHT22;49973;52.084;5.412;2023-07-31T06:19:29;16.40;99.90
61912;DHT22;49973;52.084;5.412;2023-07-31T06:21:57;16.40;99.90
61912;DHT22;49973;52.084;5.412;2023-07-31T06:24:27;16.40;99.90
61912;DHT22;49973;52.084;5.412;2023-07-31T06:26:57;16.40;99.90
61912;DHT22;49973;52.084;5.412;2023-07-31T06:29:27;16.40;99.90
61912;DHT22;49973;52.084;5.412;2023-07-31T06:31:55;16.40;99.90
61912;DHT22;49973;52.084;5.412;2023-07-31T06:34:26;16.40;99.90
61912;DHT22;49973;52.084;5.412;2023-07-31T06:36:56;16.50;99.90
61912;DHT22;49973;52.084;5.412;2023-07-31T06:39:25;16.50;99.90
61912;DHT22;49973;52.084;5.412;2023-07-31T06:41:54;16.50;99.90
61912;DHT22;49973;52.084;5.412;2023-07-31T06:44:22;16.50;99.90
61912;DHT22;49973;52.084;5.412;2023-07-31T06:46:51;16.50;99.90
61912;DHT22;49973;52.084;5.412;2023-07-31T06:49:20;16.50;99.90
61912;DHT22;49973;52.084;5.412;2023-07-31T06:51:49;16.50;99.90
61912;DHT22;49973;52.084;5.412;2023-07-31T06:54:19;16.60;99.90
61912;DHT22;49973;52.084;5.412;2023-07-31T06:56:48;16.60;99.90
61912;DHT22;49973;52.084;5.412;2023-07-31T06:59:17;16.60;99.90
61912;DHT22;49973;52.084;5.412;2023-07-31T07:01:45;16.60;99.90
61912;DHT22;49973;52.084;5.412;2023-07-31T07:04:14;16.60;99.90
61912;DHT22;49973;52.084;5.412;2023-07-31T07:06:43;16.70;99.90
61912;DHT22;49973;52.084;5.412;2023-07-31T07:09:12;16.70;99.90
61912;DHT22;49973;52.084;5.412;2023-07-31T07:11:42;16.80;99.90
61912;DHT22;49973;52.084;5.412;2023-07-31T07:14:10;16.80;99.90
61912;DHT22;49973;52.084;5.412;2023-07-31T07:16:39;16.80;99.90
61912;DHT22;49973;52.084;5.412;2023-07-31T07:19:09;16.80;99.90
61912;DHT22;49973;52.084;5.412;2023-07-31T07:21:38;16.80;99.90
61912;DHT22;49973;52.084;5.412;2023-07-31T07:24:06;16.80;99.90
61912;DHT22;49973;52.084;5.412;2023-07-31T07:26:35;16.90;99.90
61912;DHT22;49973;52.084;5.412;2023-07-31T07:29:06;16.90;99.90
61912;DHT22;49973;52.084;5.412;2023-07-31T07:31:35;16.90;99.90
61912;DHT22;49973;52.084;5.412;2023-07-31T07:34:04;17.00;99.90
61912;DHT22;49973;52.084;5.412;2023-07-31T07:36:33;17.00;99.90
61912;DHT22;49973;52.084;5.412;2023-07-31T07:39:01;17.00;99.90
61912;DHT22;49973;52.084;5.412;2023-07-31T07:41:30;17.00;99.90
61912;DHT22;49973;52.084;5.412;2023-07-31T07:43:59;17.00;99.90
61912;DHT22;49973;52.084;5.412;2023-07-31T07:46:29;17.10;99.90
61912;DHT22;49973;52.084;5.412;2023-07-31T07:48:58;17.00;99.90
61912;DHT22;49973;52.084;5.412;2023-07-31T07:51:26;17.00;99.90
61912;DHT22;49973;52.084;5.412;2023-07-31T07:53:57;17.00;99.90
61912;DHT22;49973;52.084;5.412;2023-07-31T07:56:26;17.10;99.90
61912;DHT22;49973;52.084;5.412;2023-07-31T07:58:55;17.10;99.90
61912;DHT22;49973;52.084;5.412;2023-07-31T08:01:24;17.10;99.90
61912;DHT22;49973;52.084;5.412;2023-07-31T08:03:54;17.20;99.90
61912;DHT22;49973;52.084;5.412;2023-07-31T08:06:23;17.20;99.90
61912;DHT22;49973;52.084;5.412;2023-07-31T08:08:51;17.20;99.90
61912;DHT22;49973;52.084;5.412;2023-07-31T08:11:20;17.20;99.90
61912;DHT22;49973;52.084;5.412;2023-07-31T08:13:50;17.30;99.90
61912;DHT22;49973;52.084;5.412;2023-07-31T08:16:19;17.30;99.90
61912;DHT22;49973;52.084;5.412;2023-07-31T08:18:48;17.30;99.90
61912;DHT22;49973;52.084;5.412;2023-07-31T08:21:18;17.40;99.90
61912;DHT22;49973;52.084;5.412;2023-07-31T08:23:47;17.40;99.90
61912;DHT22;49973;52.084;5.412;2023-07-31T08:26:17;17.40;99.90
61912;DHT22;49973;52.084;5.412;2023-07-31T08:28:46;17.50;99.90
61912;DHT22;49973;52.084;5.412;2023-07-31T08:31:15;17.50;99.90
61912;DHT22;49973;52.084;5.412;2023-07-31T08:33:43;17.50;99.90
61912;DHT22;49973;52.084;5.412;2023-07-31T08:36:12;17.60;99.90
61912;DHT22;49973;52.084;5.412;2023-07-31T08:38:42;17.60;99.90
61912;DHT22;49973;52.084;5.412;2023-07-31T08:41:11;17.60;99.90
61912;DHT22;49973;52.084;5.412;2023-07-31T08:43:41;17.60;99.90
61912;DHT22;49973;52.084;5.412;2023-07-31T08:46:10;17.70;99.90
61912;DHT22;49973;52.084;5.412;2023-07-31T08:48:41;17.70;99.90
61912;DHT22;49973;52.084;5.412;2023-07-31T08:51:11;17.70;99.90
61912;DHT22;49973;52.084;5.412;2023-07-31T08:53:41;17.70;99.90
61912;DHT22;49973;52.084;5.412;2023-07-31T08:56:11;17.80;99.90
61912;DHT22;49973;52.084;5.412;2023-07-31T08:58:44;17.90;99.90
61912;DHT22;49973;52.084;5.412;2023-07-31T09:01:14;17.90;99.90
61912;DHT22;49973;52.084;5.412;2023-07-31T09:03:44;17.90;99.90
61912;DHT22;49973;52.084;5.412;2023-07-31T09:06:15;17.90;99.90
61912;DHT22;49973;52.084;5.412;2023-07-31T09:08:47;17.90;99.90
61912;DHT22;49973;52.084;5.412;2023-07-31T09:11:16;18.00;99.90
61912;DHT22;49973;52.084;5.412;2023-07-31T09:13:46;18.00;99.90
61912;DHT22;49973;52.084;5.412;2023-07-31T09:16:14;18.00;99.90
61912;DHT22;49973;52.084;5.412;2023-07-31T09:18:53;18.00;99.90
61912;DHT22;49973;52.084;5.412;2023-07-31T09:21:24;18.00;99.90
61912;DHT22;49973;52.084;5.412;2023-07-31T09:23:57;18.00;99.90
61912;DHT22;49973;52.084;5.412;2023-07-31T09:26:30;18.00;99.90
61912;DHT22;49973;52.084;5.412;2023-07-31T09:29:00;18.00;99.90
61912;DHT22;49973;52.084;5.412;2023-07-31T09:31:33;17.90;99.90
61912;DHT22;49973;52.084;5.412;2023-07-31T09:34:02;17.90;99.90
61912;DHT22;49973;52.084;5.412;2023-07-31T09:36:30;17.90;99.90
61912;DHT22;49973;52.084;5.412;2023-07-31T09:39:04;17.90;99.90
61912;DHT22;49973;52.084;5.412;2023-07-31T09:41:36;18.00;99.90
61912;DHT22;49973;52.084;5.412;2023-07-31T09:44:06;18.00;99.90
61912;DHT22;49973;52.084;5.412;2023-07-31T09:46:35;18.10;99.90
61912;DHT22;49973;52.084;5.412;2023-07-31T09:49:06;18.20;99.90
61912;DHT22;49973;52.084;5.412;2023-07-31T09:51:37;18.30;99.90
61912;DHT22;49973;52.084;5.412;2023-07-31T09:54:11;18.40;99.90
61912;DHT22;49973;52.084;5.412;2023-07-31T09:56:42;18.40;99.90
61912;DHT22;49973;52.084;5.412;2023-07-31T09:59:14;18.40;99.90
61912;DHT22;49973;52.084;5.412;2023-07-31T10:01:44;18.50;99.90
61912;DHT22;49973;52.084;5.412;2023-07-31T10:04:14;18.50;99.90
61912;DHT22;49973;52.084;5.412;2023-07-31T10:06:46;18.50;99.90
61912;DHT22;49973;52.084;5.412;2023-07-31T10:09:19;18.60;99.90
61912;DHT22;49973;52.084;5.412;2023-07-31T10:11:55;18.60;99.90
61912;DHT22;49973;52.084;5.412;2023-07-31T10:14:24;18.60;99.90
61912;DHT22;49973;52.084;5.412;2023-07-31T10:16:55;18.60;99.90
61912;DHT22;49973;52.084;5.412;2023-07-31T10:19:25;18.60;99.90
61912;DHT22;49973;52.084;5.412;2023-07-31T10:21:55;18.70;99.90
61912;DHT22;49973;52.084;5.412;2023-07-31T10:24:28;18.70;99.90
61912;DHT22;49973;52.084;5.412;2023-07-31T10:27:00;18.70;99.90
61912;DHT22;49973;52.084;5.412;2023-07-31T10:29:30;18.60;99.90
61912;DHT22;49973;52.084;5.412;2023-07-31T10:31:59;18.60;99.90
61912;DHT22;49973;52.084;5.412;2023-07-31T10:34:28;18.60;99.90
61912;DHT22;49973;52.084;5.412;2023-07-31T10:37:24;18.60;99.90
61912;DHT22;49973;52.084;5.412;2023-07-31T10:40:05;18.60;99.90
61912;DHT22;49973;52.084;5.412;2023-07-31T10:42:35;18.60;99.90
61912;DHT22;49973;52.084;5.412;2023-07-31T10:45:07;18.60;99.90
61912;DHT22;49973;52.084;5.412;2023-07-31T10:47:37;18.60;99.90
61912;DHT22;49973;52.084;5.412;2023-07-31T10:50:17;18.70;99.90
61912;DHT22;49973;52.084;5.412;2023-07-31T10:52:48;18.70;99.90
61912;DHT22;49973;52.084;5.412;2023-07-31T10:55:33;18.80;99.90
61912;DHT22;49973;52.084;5.412;2023-07-31T10:58:08;18.90;99.90
61912;DHT22;49973;52.084;5.412;2023-07-31T11:00:39;18.90;99.90
61912;DHT22;49973;52.084;5.412;2023-07-31T11:03:09;18.90;99.90
61912;DHT22;49973;52.084;5.412;2023-07-31T11:05:44;18.90;99.90
61912;DHT22;49973;52.084;5.412;2023-07-31T11:08:15;18.90;99.90
61912;DHT22;49973;52.084;5.412;2023-07-31T11:10:48;18.90;99.90
61912;DHT22;49973;52.084;5.412;2023-07-31T11:13:17;19.00;99.90
61912;DHT22;49973;52.084;5.412;2023-07-31T11:15:46;19.00;99.90
61912;DHT22;49973;52.084;5.412;2023-07-31T11:18:15;19.00;99.90
61912;DHT22;49973;52.084;5.412;2023-07-31T11:20:44;19.00;99.90
61912;DHT22;49973;52.084;5.412;2023-07-31T11:23:15;19.00;99.90
61912;DHT22;49973;52.084;5.412;2023-07-31T11:25:45;18.90;99.90
61912;DHT22;49973;52.084;5.412;2023-07-31T11:28:16;18.90;99.90
61912;DHT22;49973;52.084;5.412;2023-07-31T11:30:46;18.80;99.90
61912;DHT22;49973;52.084;5.412;2023-07-31T11:33:15;18.80;99.90
61912;DHT22;49973;52.084;5.412;2023-07-31T11:35:45;18.70;99.90
61912;DHT22;49973;52.084;5.412;2023-07-31T11:38:21;18.70;99.90
61912;DHT22;49973;52.084;5.412;2023-07-31T11:40:53;18.70;99.90
61912;DHT22;49973;52.084;5.412;2023-07-31T11:43:23;18.70;99.90
61912;DHT22;49973;52.084;5.412;2023-07-31T11:45:54;18.70;99.90
61912;DHT22;49973;52.084;5.412;2023-07-31T11:48:24;18.70;99.90
61912;DHT22;49973;52.084;5.412;2023-07-31T11:50:57;18.70;99.90
61912;DHT22;49973;52.084;5.412;2023-07-31T11:53:29;18.70;99.90
61912;DHT22;49973;52.084;5.412;2023-07-31T11:56:02;18.80;99.90
61912;DHT22;49973;52.084;5.412;2023-07-31T11:58:34;18.70;99.90
61912;DHT22;49973;52.084;5.412;2023-07-31T12:01:03;18.70;99.90
61912;DHT22;49973;52.084;5.412;2023-07-31T12:03:32;18.70;99.90
61912;DHT22;49973;52.084;5.412;2023-07-31T12:06:02;18.70;99.90
61912;DHT22;49973;52.084;5.412;2023-07-31T12:08:31;18.70;99.90
61912;DHT22;49973;52.084;5.412;2023-07-31T12:11:04;18.70;99.90
61912;DHT22;49973;52.084;5.412;2023-07-31T12:13:34;18.80;99.90
61912;DHT22;49973;52.084;5.412;2023-07-31T12:16:04;18.80;99.90
61912;DHT22;49973;52.084;5.412;2023-07-31T12:18:34;18.90;99.90
61912;DHT22;49973;52.084;5.412;2023-07-31T12:21:05;18.90;99.90
61912;DHT22;49973;52.084;5.412;2023-07-31T12:23:35;19.00;99.90
61912;DHT22;49973;52.084;5.412;2023-07-31T12:26:07;19.00;99.90
61912;DHT22;49973;52.084;5.412;2023-07-31T12:28:37;19.10;99.90
61912;DHT22;49973;52.084;5.412;2023-07-31T12:31:08;19.10;99.90
61912;DHT22;49973;52.084;5.412;2023-07-31T12:33:39;19.10;99.90
61912;DHT22;49973;52.084;5.412;2023-07-31T12:36:09;19.10;99.90
61912;DHT22;49973;52.084;5.412;2023-07-31T12:38:38;19.10;99.90
61912;DHT22;49973;52.084;5.412;2023-07-31T12:41:09;19.10;99.90
61912;DHT22;49973;52.084;5.412;2023-07-31T12:43:39;19.10;99.90
61912;DHT22;49973;52.084;5.412;2023-07-31T12:46:08;19.10;99.90
61912;DHT22;49973;52.084;5.412;2023-07-31T12:48:38;19.10;99.90
61912;DHT22;49973;52.084;5.412;2023-07-31T12:51:07;19.20;99.90
61912;DHT22;49973;52.084;5.412;2023-07-31T12:53:36;19.20;99.90
61912;DHT22;49973;52.084;5.412;2023-07-31T12:56:05;19.20;99.90
61912;DHT22;49973;52.084;5.412;2023-07-31T12:58:35;19.30;99.90
61912;DHT22;49973;52.084;5.412;2023-07-31T13:01:04;19.30;99.90
61912;DHT22;49973;52.084;5.412;2023-07-31T13:03:33;19.30;99.90
61912;DHT22;49973;52.084;5.412;2023-07-31T13:06:03;19.30;99.90
61912;DHT22;49973;52.084;5.412;2023-07-31T13:08:32;19.30;99.90
61912;DHT22;49973;52.084;5.412;2023-07-31T13:11:01;19.30;99.90
61912;DHT22;49973;52.084;5.412;2023-07-31T13:13:30;19.30;99.90
61912;DHT22;49973;52.084;5.412;2023-07-31T13:16:01;19.30;99.90
61912;DHT22;49973;52.084;5.412;2023-07-31T13:18:29;19.40;99.90
61912;DHT22;49973;52.084;5.412;2023-07-31T13:20:58;19.50;99.90
61912;DHT22;49973;52.084;5.412;2023-07-31T13:23:27;19.50;99.90
61912;DHT22;49973;52.084;5.412;2023-07-31T13:25:56;19.50;99.90
61912;DHT22;49973;52.084;5.412;2023-07-31T13:28:24;19.50;99.90
61912;DHT22;49973;52.084;5.412;2023-07-31T13:30:53;19.60;99.90
61912;DHT22;49973;52.084;5.412;2023-07-31T13:33:24;19.60;99.90
61912;DHT22;49973;52.084;5.412;2023-07-31T13:36:04;19.70;99.90
61912;DHT22;49973;52.084;5.412;2023-07-31T13:38:32;19.60;99.90
61912;DHT22;49973;52.084;5.412;2023-07-31T13:41:01;19.70;99.90
61912;DHT22;49973;52.084;5.412;2023-07-31T13:43:30;19.60;99.90
61912;DHT22;49973;52.084;5.412;2023-07-31T13:45:59;19.60;99.90
61912;DHT22;49973;52.084;5.412;2023-07-31T13:48:36;19.50;99.90
61912;DHT22;49973;52.084;5.412;2023-07-31T13:51:04;19.40;99.90
61912;DHT22;49973;52.084;5.412;2023-07-31T13:53:33;19.40;99.90
61912;DHT22;49973;52.084;5.412;2023-07-31T13:56:02;19.30;99.90
61912;DHT22;49973;52.084;5.412;2023-07-31T13:58:31;19.30;99.90
61912;DHT22;49973;52.084;5.412;2023-07-31T14:01:00;19.30;99.90
61912;DHT22;49973;52.084;5.412;2023-07-31T14:03:29;19.20;99.90
61912;DHT22;49973;52.084;5.412;2023-07-31T14:05:59;19.20;99.90
61912;DHT22;49973;52.084;5.412;2023-07-31T14:08:28;19.20;99.90
61912;DHT22;49973;52.084;5.412;2023-07-31T14:10:58;19.20;99.90
61912;DHT22;49973;52.084;5.412;2023-07-31T14:13:27;19.20;99.90
61912;DHT22;49973;52.084;5.412;2023-07-31T14:15:56;19.10;99.90
61912;DHT22;49973;52.084;5.412;2023-07-31T14:18:25;19.10;99.90
61912;DHT22;49973;52.084;5.412;2023-07-31T14:20:54;19.10;99.90
61912;DHT22;49973;52.084;5.412;2023-07-31T14:23:24;19.00;99.90
61912;DHT22;49973;52.084;5.412;2023-07-31T14:25:53;19.00;99.90
61912;DHT22;49973;52.084;5.412;2023-07-31T14:28:22;19.00;99.90
61912;DHT22;49973;52.084;5.412;2023-07-31T14:30:51;19.00;99.90
61912;DHT22;49973;52.084;5.412;2023-07-31T14:33:19;19.00;99.90
61912;DHT22;49973;52.084;5.412;2023-07-31T14:35:48;19.00;99.90
61912;DHT22;49973;52.084;5.412;2023-07-31T14:38:17;19.00;99.90
61912;DHT22;49973;52.084;5.412;2023-07-31T14:40:47;19.00;99.90
61912;DHT22;49973;52.084;5.412;2023-07-31T14:43:17;19.00;99.90
61912;DHT22;49973;52.084;5.412;2023-07-31T14:45:45;19.00;99.90
61912;DHT22;49973;52.084;5.412;2023-07-31T14:48:14;19.00;99.90
61912;DHT22;49973;52.084;5.412;2023-07-31T14:50:43;19.00;99.90
61912;DHT22;49973;52.084;5.412;2023-07-31T14:53:12;19.00;99.90
61912;DHT22;49973;52.084;5.412;2023-07-31T14:55:41;19.00;99.90
61912;DHT22;49973;52.084;5.412;2023-07-31T14:58:11;18.90;99.90
61912;DHT22;49973;52.084;5.412;2023-07-31T15:00:42;18.90;99.90
61912;DHT22;49973;52.084;5.412;2023-07-31T15:03:10;18.90;99.90
61912;DHT22;49973;52.084;5.412;2023-07-31T15:05:39;18.80;99.90
61912;DHT22;49973;52.084;5.412;2023-07-31T15:08:08;18.80;99.90
61912;DHT22;49973;52.084;5.412;2023-07-31T15:10:37;18.80;99.90
61912;DHT22;49973;52.084;5.412;2023-07-31T15:13:06;18.80;99.90
61912;DHT22;49973;52.084;5.412;2023-07-31T15:15:37;18.80;99.90
61912;DHT22;49973;52.084;5.412;2023-07-31T15:18:07;18.80;99.90
61912;DHT22;49973;52.084;5.412;2023-07-31T15:20:54;18.80;99.90
61912;DHT22;49973;52.084;5.412;2023-07-31T15:23:27;18.80;99.90
61912;DHT22;49973;52.084;5.412;2023-07-31T15:26:01;18.70;99.90
61912;DHT22;49973;52.084;5.412;2023-07-31T15:28:31;18.70;99.90
61912;DHT22;49973;52.084;5.412;2023-07-31T15:31:03;18.70;99.90
61912;DHT22;49973;52.084;5.412;2023-07-31T15:33:32;18.70;99.90
61912;DHT22;49973;52.084;5.412;2023-07-31T15:36:04;18.70;99.90
61912;DHT22;49973;52.084;5.412;2023-07-31T15:38:38;18.70;99.90
61912;DHT22;49973;52.084;5.412;2023-07-31T15:41:06;18.70;99.90
61912;DHT22;49973;52.084;5.412;2023-07-31T15:43:35;18.70;99.90
61912;DHT22;49973;52.084;5.412;2023-07-31T15:46:05;18.60;99.90